Time;durP1;ratioP1;P1;durP2;ratioP2;P2;SDS_P1;SDS_P2;PMS_P1;PMS_P2;Temp;Humidity;BMP_temperature;BMP_pressure;BME280_temperature;BME280_humidity;BME280_pressure;Samples;Min_cycle;Max_cycle;Signal;HPM_P1;HPM_P2
2023/10/18 00:01:45;;;;;;;24.13;12.93;;;;;;;5.12;100.00;101128.03;5114689;28;20466;-74
2023/10/18 00:04:11;;;;;;;24.05;13.25;;;;;;;5.14;100.00;101135.94;5115922;28;20024;-73
2023/10/18 00:06:36;;;;;;;23.95;12.63;;;;;;;5.11;100.00;101131.53;5116225;28;20031;-73
2023/10/18 00:09:32;;;;;;;23.25;12.82;;;;;;;5.10;100.00;101128.81;5116183;28;20120;-69
2023/10/18 00:11:48;;;;;;;23.98;13.05;;;;;;;5.06;100.00;101123.47;5114060;28;20036;-74
2023/10/18 00:14:13;;;;;;;24.73;13.30;;;;;;;5.02;100.00;101128.59;5115825;28;20135;-71
2023/10/18 00:16:39;;;;;;;23.25;13.23;;;;;;;5.02;100.00;101128.59;5115793;28;20540;-72
2023/10/18 00:19:04;;;;;;;23.55;12.68;;;;;;;4.98;100.00;101124.09;5115699;28;20027;-69
2023/10/18 00:21:32;;;;;;;22.90;12.82;;;;;;;4.97;100.00;101124.94;5115933;28;20028;-71
2023/10/18 00:23:57;;;;;;;22.92;12.57;;;;;;;5.02;100.00;101120.72;5114400;28;20038;-73
2023/10/18 00:26:23;;;;;;;23.23;12.73;;;;;;;4.98;100.00;101129.31;5115557;28;20028;-73
2023/10/18 00:28:48;;;;;;;23.08;13.10;;;;;;;4.92;100.00;101121.28;5115835;28;20055;-70
2023/10/18 00:31:20;;;;;;;23.63;13.10;;;;;;;4.94;100.00;101122.25;5114192;28;20067;-70
2023/10/18 00:33:46;;;;;;;24.77;13.43;;;;;;;4.93;100.00;101115.22;5115353;28;20020;-72
2023/10/18 00:36:16;;;;;;;23.38;12.90;;;;;;;4.89;100.00;101109.88;5115537;28;20166;-72
2023/10/18 00:38:41;;;;;;;22.80;12.52;;;;;;;4.93;100.00;101125.69;5115502;28;20030;-71
2023/10/18 00:41:32;;;;;;;23.15;12.77;;;;;;;4.93;100.00;101117.81;5113771;28;20490;-72
2023/10/18 00:43:58;;;;;;;23.02;12.35;;;;;;;4.90;100.00;101121.22;5115206;28;20059;-72
2023/10/18 00:46:23;;;;;;;23.67;12.73;;;;;;;4.86;100.00;101119.34;5115261;28;20099;-71
2023/10/18 00:48:48;;;;;;;23.52;12.57;;;;;;;4.79;100.00;101110.44;5115349;28;20031;-71
2023/10/18 00:51:18;;;;;;;25.20;13.05;;;;;;;4.77;100.00;101114.69;5114992;27;20032;-72
2023/10/18 00:53:46;;;;;;;23.05;12.23;;;;;;;4.74;100.00;101118.97;5113684;28;20031;-70
2023/10/18 00:56:15;;;;;;;24.15;12.93;;;;;;;4.72;100.00;101105.81;5115201;28;20035;-71
2023/10/18 00:58:40;;;;;;;23.40;12.55;;;;;;;4.70;100.00;101104.88;5115366;28;20030;-71
2023/10/18 01:01:09;;;;;;;24.02;12.70;;;;;;;4.68;100.00;101099.59;5114899;28;20386;-71
2023/10/18 01:03:41;;;;;;;22.90;12.35;;;;;;;4.69;100.00;101092.63;5114983;28;20114;-71
2023/10/18 01:06:20;;;;;;;22.25;12.52;;;;;;;4.65;100.00;101089.00;5114777;28;20023;-71
2023/10/18 01:08:47;;;;;;;22.85;12.02;;;;;;;4.66;100.00;101085.56;5113793;28;20110;-71
2023/10/18 01:11:14;;;;;;;23.30;12.32;;;;;;;4.62;100.00;101073.19;5114437;28;20485;-71
2023/10/18 01:13:45;;;;;;;23.15;12.18;;;;;;;4.59;100.00;101077.44;5114849;28;20042;-69
2023/10/18 01:16:14;;;;;;;23.70;12.15;;;;;;;4.66;100.00;101071.56;5114544;28;20079;-69
2023/10/18 01:18:43;;;;;;;22.40;11.65;;;;;;;4.66;100.00;101068.94;5114536;28;20027;-70
2023/10/18 01:21:13;;;;;;;23.65;11.90;;;;;;;4.65;100.00;101061.94;5113406;28;20445;-74
2023/10/18 01:23:50;;;;;;;23.27;12.18;;;;;;;4.67;100.00;101052.41;5114559;28;20028;-69
2023/10/18 01:26:17;;;;;;;22.48;12.02;;;;;;;4.66;100.00;101055.84;5114334;28;20035;-72
2023/10/18 01:28:43;;;;;;;23.75;12.10;;;;;;;4.65;100.00;101051.47;5112967;28;20110;-73
2023/10/18 01:31:09;;;;;;;22.52;11.88;;;;;;;4.71;100.00;101035.94;5113229;28;20115;-70
2023/10/18 01:33:39;;;;;;;22.88;11.88;;;;;;;4.72;100.00;101042.97;5114170;28;20044;-71
2023/10/18 01:36:05;;;;;;;22.25;11.80;;;;;;;4.70;100.00;101039.38;5114236;28;20446;-71
2023/10/18 01:38:31;;;;;;;23.05;12.38;;;;;;;4.69;100.00;101038.50;5114157;28;20120;-69
2023/10/18 01:41:00;;;;;;;22.40;11.85;;;;;;;4.66;100.00;101032.28;5113813;28;20043;-72
2023/10/18 01:43:28;;;;;;;22.17;11.68;;;;;;;4.67;100.00;101027.09;5113998;28;20535;-69
2023/10/18 01:45:54;;;;;;;23.48;12.25;;;;;;;4.74;100.00;101024.69;5113142;28;20073;-71
2023/10/18 01:48:19;;;;;;;22.90;12.20;;;;;;;4.71;100.00;101025.47;5114080;28;20103;-70
2023/10/18 01:50:50;;;;;;;22.88;11.65;;;;;;;4.71;100.00;101009.75;5114102;28;20040;-68
2023/10/18 01:53:16;;;;;;;22.23;11.68;;;;;;;4.67;100.00;101000.91;5113710;28;20049;-70
2023/10/18 01:55:46;;;;;;;22.70;12.13;;;;;;;4.64;100.00;101002.53;5113987;28;20027;-71
2023/10/18 01:58:13;;;;;;;23.02;12.13;;;;;;;4.66;100.00;101000.84;5112555;28;20032;-70
2023/10/18 02:00:41;;;;;;;22.10;11.80;;;;;;;4.68;100.00;100993.94;5113685;28;20027;-69
2023/10/18 02:03:08;;;;;;;23.52;12.00;;;;;;;4.63;100.00;100992.91;5113884;28;20027;-68
2023/10/18 02:05:43;;;;;;;24.15;12.18;;;;;;;4.64;100.00;100992.94;5113685;28;20106;-68
2023/10/18 02:08:09;;;;;;;22.70;12.15;;;;;;;4.64;100.00;100990.31;5110593;28;20107;-68
2023/10/18 02:10:34;;;;;;;23.77;12.10;;;;;;;4.63;100.00;100998.13;5113786;28;20087;-71
2023/10/18 02:13:00;;;;;;;22.73;11.75;;;;;;;4.65;100.00;101001.72;5113453;28;20027;-69
2023/10/18 02:15:26;;;;;;;23.02;11.75;;;;;;;4.61;100.00;100987.63;5113751;28;20035;-69
2023/10/18 02:17:53;;;;;;;22.90;12.20;;;;;;;4.60;100.00;100988.47;5113649;28;20386;-70
2023/10/18 02:20:26;;;;;;;22.48;11.75;;;;;;;4.56;100.00;100986.59;5112233;28;20036;-70
2023/10/18 02:22:53;;;;;;;;;;;;;;;4.54;100.00;100977.78;5112625;28;20019;-69
2023/10/18 02:25:37;;;;;;;22.48;12.07;;;;;;;4.56;100.00;100981.38;5113218;28;19923;-70
2023/10/18 02:28:08;;;;;;;23.70;12.43;;;;;;;4.52;100.00;100977.75;5109730;28;20023;-70
2023/10/18 02:30:38;;;;;;;23.60;12.18;;;;;;;4.52;100.00;100979.50;5109697;28;20028;-71
2023/10/18 02:33:05;;;;;;;23.27;12.23;;;;;;;4.57;100.00;100975.25;5109313;28;20382;-74
2023/10/18 02:35:33;;;;;;;22.55;11.70;;;;;;;4.59;100.00;100970.06;5109116;28;20019;-73
2023/10/18 02:38:07;;;;;;;22.67;12.27;;;;;;;4.57;100.00;100969.16;5113350;28;20069;-72
2023/10/18 02:40:33;;;;;;;23.83;12.57;;;;;;;4.56;100.00;100964.75;5108997;28;20047;-72
2023/10/18 02:42:58;;;;;;;22.80;12.07;;;;;;;4.53;100.00;100963.81;5113136;28;20024;-72
2023/10/18 02:45:24;;;;;;;22.33;11.52;;;;;;;4.57;100.00;100958.69;5113308;28;20390;-74
2023/10/18 02:47:54;;;;;;;22.92;12.07;;;;;;;4.52;100.00;100961.16;5113216;28;20115;-72
2023/10/18 02:50:20;;;;;;;21.92;12.25;;;;;;;4.51;100.00;100964.59;5112881;28;20054;-73
2023/10/18 02:52:46;;;;;;;22.85;12.13;;;;;;;4.48;100.00;100965.41;5112719;28;20042;-74
2023/10/18 02:55:18;;;;;;;23.00;12.70;;;;;;;4.43;100.00;100950.41;5113136;28;20036;-72
2023/10/18 02:57:46;;;;;;;;;;;;;;;4.37;100.00;100951.13;5113326;28;20024;-73
2023/10/18 03:00:17;;;;;;;24.00;12.85;;;;;;;4.38;100.00;100942.38;5112879;28;19915;-74
2023/10/18 03:02:42;;;;;;;22.52;12.02;;;;;;;4.39;100.00;100938.94;5112924;28;20031;-72
2023/10/18 03:05:08;;;;;;;23.45;12.43;;;;;;;4.39;100.00;100938.06;5112877;28;20092;-73
2023/10/18 03:07:36;;;;;;;22.73;12.23;;;;;;;4.33;100.00;100936.16;5112845;28;20026;-72
2023/10/18 03:10:11;;;;;;;23.40;12.70;;;;;;;4.36;100.00;100937.13;5108963;28;20433;-70
2023/10/18 03:12:37;;;;;;;23.67;12.70;;;;;;;4.32;100.00;100923.88;5108311;28;20032;-71
2023/10/18 03:15:08;;;;;;;25.15;12.57;;;;;;;4.33;100.00;100929.16;5112514;28;20553;-70
2023/10/18 03:17:36;;;;;;;24.05;12.60;;;;;;;4.38;100.00;100931.03;5109330;28;20382;-73
2023/10/18 03:20:19;;;;;;;22.80;12.45;;;;;;;4.38;100.00;100931.91;5109042;28;20024;-73
2023/10/18 03:22:45;;;;;;;22.73;12.30;;;;;;;4.39;100.00;100923.25;5110709;28;20028;-70
2023/10/18 03:25:14;;;;;;;22.73;12.48;;;;;;;4.35;100.00;100919.66;5112627;28;20061;-69
2023/10/18 03:27:49;;;;;;;23.55;11.98;;;;;;;4.32;100.00;100922.16;5112526;28;20034;-71
2023/10/18 03:30:18;;;;;;;22.70;12.05;;;;;;;4.30;100.00;100912.50;5111498;28;20039;-69
2023/10/18 03:32:49;;;;;;;22.77;12.27;;;;;;;4.33;100.00;100916.09;5112575;28;20020;-69
2023/10/18 03:35:21;;;;;;;23.67;12.55;;;;;;;4.33;100.00;100910.84;5112589;28;20471;-69
2023/10/18 03:37:47;;;;;;;23.95;12.80;;;;;;;4.33;100.00;100907.34;5112602;28;20024;-69
2023/10/18 03:40:47;;;;;;;22.90;12.65;;;;;;;4.34;100.00;100903.91;5112250;28;20063;-69
2023/10/18 03:43:09;;;;;;;23.58;12.70;;;;;;;4.34;100.00;100889.06;5107733;28;20044;-69
2023/10/18 03:48:26;;;;;;;24.23;12.10;;;;;;;4.34;100.00;100877.72;5111431;28;20500;-70
2023/10/18 03:50:55;;;;;;;23.33;12.45;;;;;;;4.40;100.00;100877.00;5112217;28;20032;-68
2023/10/18 03:53:21;;;;;;;23.77;12.65;;;;;;;4.39;100.00;100864.78;5112571;28;20034;-69
2023/10/18 03:55:49;;;;;;;22.85;12.13;;;;;;;4.43;100.00;100872.75;5112631;28;20529;-71
2023/10/18 03:58:22;;;;;;;23.02;12.18;;;;;;;4.46;100.00;100870.22;5112483;28;20027;-71
2023/10/18 04:00:48;;;;;;;22.83;12.02;;;;;;;4.49;100.00;100861.59;5112414;28;20039;-71
2023/10/18 04:03:15;;;;;;;22.98;12.23;;;;;;;4.43;100.00;100861.41;5112539;28;20397;-70
2023/10/18 04:05:52;;;;;;;22.42;11.65;;;;;;;4.48;100.00;100855.44;5113559;28;20111;-71
2023/10/18 04:08:17;;;;;;;23.35;12.02;;;;;;;4.49;100.00;100857.22;5116127;27;20570;-71
2023/10/18 04:10:44;;;;;;;23.48;11.50;;;;;;;4.51;100.00;100857.25;5115842;27;20028;-73
2023/10/18 04:13:12;;;;;;;23.15;11.90;;;;;;;4.52;100.00;100851.19;5116054;28;20028;-70
2023/10/18 04:15:45;;;;;;;22.23;11.90;;;;;;;4.50;100.00;100851.16;5115802;28;20032;-71
2023/10/18 04:20:37;;;;;;;22.55;11.35;;;;;;;4.61;100.00;100846.22;5115994;28;20006;-70
2023/10/18 04:23:14;;;;;;;22.65;11.85;;;;;;;4.58;100.00;100840.03;5111502;28;20023;-69
2023/10/18 04:25:40;;;;;;;25.27;12.02;;;;;;;4.59;100.00;100836.53;5112774;28;20420;-71
2023/10/18 04:28:06;;;;;;;22.58;11.20;;;;;;;4.59;100.00;100829.59;5114466;28;20024;-71
2023/10/18 04:30:32;;;;;;;22.08;11.35;;;;;;;4.63;100.00;100830.53;5111259;28;20460;-70
2023/10/18 04:33:14;;;;;;;21.95;10.80;;;;;;;4.64;100.00;100834.94;5115212;28;20546;-72
2023/10/18 04:35:45;;;;;;;22.13;11.73;;;;;;;4.64;100.00;100824.47;5112453;28;20016;-69
2023/10/18 04:38:36;;;;;;;22.55;11.20;;;;;;;4.63;100.00;100822.69;5115583;28;20028;-69
2023/10/18 04:41:08;;;;;;;21.95;11.15;;;;;;;4.63;100.00;100814.84;5110968;28;20078;-70
2023/10/18 04:43:34;;;;;;;21.90;11.15;;;;;;;4.60;100.00;100813.03;5111590;28;20040;-71
2023/10/18 04:51:26;;;;;;;22.05;11.18;;;;;;;4.60;100.00;100814.75;5115343;28;20047;-71
2023/10/18 04:54:02;;;;;;;22.00;11.50;;;;;;;4.61;100.00;100814.78;5114983;28;20102;-71
2023/10/18 04:56:46;;;;;;;22.63;11.38;;;;;;;4.60;100.00;100806.91;5115430;28;20421;-70
2023/10/18 05:01:56;;;;;;;22.33;11.40;;;;;;;4.60;100.00;100801.66;5114947;28;20040;-71
2023/10/18 05:04:34;;;;;;;22.23;11.25;;;;;;;4.61;100.00;100804.31;5114782;28;20027;-71
2023/10/18 05:07:14;;;;;;;22.73;11.35;;;;;;;4.63;100.00;100791.25;5114797;28;20030;-69
2023/10/18 05:09:43;;;;;;;22.23;11.48;;;;;;;4.67;100.00;100780.91;5111633;28;20053;-74
2023/10/18 05:17:23;;;;;;;22.30;11.30;;;;;;;4.76;100.00;100771.53;5114436;28;20028;-70
2023/10/18 05:19:50;;;;;;;22.55;11.50;;;;;;;4.78;100.00;100769.88;5114527;28;20035;-71
2023/10/18 05:22:25;;;;;;;22.98;11.30;;;;;;;4.77;100.00;100774.19;5113342;28;20023;-70
2023/10/18 05:24:55;;;;;;;23.38;11.38;;;;;;;4.84;100.00;100770.03;5114600;28;20381;-71
2023/10/18 05:27:27;;;;;;;23.60;11.60;;;;;;;4.79;100.00;100766.38;5114248;28;20063;-71
2023/10/18 05:30:08;;;;;;;23.88;11.65;;;;;;;4.80;100.00;100763.81;5114256;28;20063;-73
2023/10/18 05:37:50;;;;;;;23.25;11.35;;;;;;;4.77;100.00;100768.97;5112107;28;20046;-73
2023/10/18 05:43:03;;;;;;;25.90;13.75;;;;;;;4.80;100.00;100752.44;5114578;28;20069;-72
2023/10/18 05:45:31;;;;;;;23.42;12.00;;;;;;;4.78;100.00;100751.53;5112837;28;20114;-70
2023/10/18 05:48:03;;;;;;;28.85;18.35;;;;;;;4.77;100.00;100748.00;5113998;28;20052;-72
2023/10/18 05:50:34;;;;;;;22.88;11.77;;;;;;;4.79;100.00;100754.19;5113852;28;20124;-73
2023/10/18 05:53:02;;;;;;;25.38;13.55;;;;;;;4.81;100.00;100743.75;5107411;28;20055;-71
2023/10/18 05:55:30;;;;;;;24.17;12.82;;;;;;;4.82;100.00;100756.91;5111955;28;20111;-71
2023/10/18 05:57:56;;;;;;;33.72;23.27;;;;;;;4.88;100.00;100746.56;5112311;28;20031;-70
2023/10/18 06:00:22;;;;;;;45.63;36.85;;;;;;;4.95;100.00;100745.00;5113838;28;20096;-72
2023/10/18 06:02:48;;;;;;;25.50;15.98;;;;;;;5.03;100.00;100739.94;5113458;28;20407;-71
2023/10/18 06:05:13;;;;;;;25.58;14.70;;;;;;;5.04;100.00;100728.63;5113140;28;20046;-72
2023/10/18 06:07:39;;;;;;;22.85;11.30;;;;;;;5.05;100.00;100738.25;5112113;28;20020;-70
2023/10/18 06:10:17;;;;;;;22.70;11.07;;;;;;;5.00;100.00;100734.63;5113398;28;20073;-73
2023/10/18 06:12:48;;;;;;;23.05;10.75;;;;;;;4.96;100.00;100738.03;5113211;28;20119;-69
2023/10/18 06:15:15;;;;;;;24.65;12.70;;;;;;;4.98;100.00;100738.94;5113362;28;20076;-69
2023/10/18 06:17:46;;;;;;;21.70;10.55;;;;;;;4.96;100.00;100725.78;5112628;28;20027;-71
2023/10/18 06:20:26;;;;;;;22.42;10.70;;;;;;;4.95;100.00;100721.44;5113056;28;20034;-69
2023/10/18 06:22:59;;;;;;;23.80;10.80;;;;;;;4.98;100.00;100710.09;5109170;28;20031;-70
2023/10/18 06:25:34;;;;;;;22.70;10.80;;;;;;;4.98;100.00;100702.25;5109725;28;20024;-72
2023/10/18 06:27:59;;;;;;;21.45;10.20;;;;;;;5.04;100.00;100700.69;5109219;28;20027;-72
2023/10/18 06:30:25;;;;;;;23.33;10.55;;;;;;;5.05;100.00;100693.69;5091923;28;20058;-71
2023/10/18 06:32:51;;;;;;;22.48;10.32;;;;;;;5.13;100.00;100700.03;5113081;28;20106;-70
2023/10/18 06:35:26;;;;;;;22.10;10.60;;;;;;;5.10;100.00;100699.03;5113215;28;20440;-69
2023/10/18 06:37:51;;;;;;;22.88;10.88;;;;;;;5.10;100.00;100694.72;5110111;28;20104;-69
2023/10/18 06:43:03;;;;;;;22.10;9.65;;;;;;;5.15;100.00;100672.09;5112767;28;20143;-66
2023/10/18 06:45:33;;;;;;;21.05;9.70;;;;;;;5.21;100.00;100687.09;5113172;28;20122;-69
2023/10/18 06:47:58;;;;;;;21.77;10.00;;;;;;;5.20;100.00;100686.22;5112669;28;20019;-69
2023/10/18 06:50:27;;;;;;;20.80;9.52;;;;;;;5.23;100.00;100677.53;5112727;28;20423;-70
2023/10/18 06:52:53;;;;;;;21.73;10.07;;;;;;;5.26;100.00;100675.00;5112653;28;20035;-67
2023/10/18 06:55:35;;;;;;;21.92;10.23;;;;;;;5.29;100.00;100674.19;5112639;28;20039;-70
2023/10/18 06:58:41;;;;;;;21.88;10.00;;;;;;;5.32;100.00;100677.75;5108564;28;20027;-69
2023/10/18 07:01:00;;;;;;;21.77;9.50;;;;;;;5.37;100.00;100673.50;5107919;28;20062;-71
2023/10/18 07:03:29;;;;;;;22.23;9.93;;;;;;;5.42;100.00;100663.13;5110604;28;20016;-68
2023/10/18 07:06:04;;;;;;;21.92;9.95;;;;;;;5.47;100.00;100664.09;5111558;28;20039;-69
2023/10/18 07:08:40;;;;;;;21.92;9.57;;;;;;;5.55;100.00;100664.28;5112801;28;20080;-67
2023/10/18 07:11:08;;;;;;;21.90;9.70;;;;;;;5.62;100.00;100660.94;5112599;28;20034;-67
2023/10/18 07:13:34;;;;;;;22.48;9.85;;;;;;;5.62;100.00;100652.19;5109571;28;20027;-69
2023/10/18 07:16:00;;;;;;;21.23;10.00;;;;;;;5.64;100.00;100653.13;5111984;28;20036;-74
2023/10/18 07:18:27;;;;;;;21.08;9.25;;;;;;;5.69;100.00;100643.59;5111946;28;20030;-71
2023/10/18 07:20:52;;;;;;;22.35;9.88;;;;;;;5.74;100.00;100653.31;5112409;28;20551;-70
2023/10/18 07:23:21;;;;;;;21.25;9.35;;;;;;;5.76;100.00;100642.88;5112244;28;20070;-68
2023/10/18 07:25:48;;;;;;;22.58;10.13;;;;;;;5.83;100.00;100629.03;5112693;28;20023;-68
2023/10/18 07:28:13;;;;;;;20.92;9.63;;;;;;;5.86;100.00;100631.69;5112401;28;20031;-70
2023/10/18 07:30:44;;;;;;;21.95;9.77;;;;;;;5.95;100.00;100636.25;5111887;28;20542;-75
2023/10/18 07:33:10;;;;;;;22.95;9.90;;;;;;;6.05;100.00;100626.84;5112425;28;20035;-74
2023/10/18 07:35:44;;;;;;;21.65;10.00;;;;;;;6.18;100.00;100614.84;5112312;28;20480;-69
2023/10/18 07:38:09;;;;;;;21.05;9.50;;;;;;;6.16;100.00;100625.34;5112333;28;20161;-69
2023/10/18 07:40:40;;;;;;;20.40;9.40;;;;;;;6.24;100.00;100623.72;5115389;28;20122;-76
2023/10/18 07:43:07;;;;;;;21.40;9.77;;;;;;;6.30;100.00;100627.31;5116373;28;20028;-76
2023/10/18 07:45:33;;;;;;;22.52;9.75;;;;;;;6.34;100.00;100614.28;5116269;27;20032;-71
2023/10/18 07:47:58;;;;;;;22.15;9.65;;;;;;;6.40;100.00;100613.50;5115874;28;20375;-68
2023/10/18 07:53:05;;;;;;;22.20;9.52;;;;;;;6.54;100.00;100601.50;5113063;28;20035;-68
2023/10/18 07:55:36;;;;;;;21.10;9.30;;;;;;;6.62;100.00;100607.75;5116228;28;20390;-69
2023/10/18 07:58:06;;;;;;;22.00;9.90;;;;;;;6.63;100.00;100595.50;5115397;28;20028;-73
2023/10/18 08:00:32;;;;;;;21.75;9.40;;;;;;;6.72;100.00;100598.28;5116253;28;20412;-72
2023/10/18 08:02:59;;;;;;;22.00;9.65;;;;;;;6.86;100.00;100603.78;5116049;28;20023;-73
2023/10/18 08:05:30;;;;;;;23.13;10.05;;;;;;;6.93;100.00;100589.88;5116070;27;20019;-72
2023/10/18 08:07:57;;;;;;;21.60;9.63;;;;;;;7.02;100.00;100601.34;5116362;28;20115;-77
2023/10/18 08:10:23;;;;;;;21.63;9.68;;;;;;;7.23;100.00;100604.31;5116113;28;20035;-74
2023/10/18 08:13:08;;;;;;;21.40;9.63;;;;;;;7.45;100.00;100596.72;5114699;28;20479;-74
2023/10/18 08:15:35;;;;;;;21.30;9.60;;;;;;;7.66;100.00;100594.38;5114572;28;20028;-75
2023/10/18 08:18:14;;;;;;;20.52;9.23;;;;;;;7.75;100.00;100587.47;5115796;28;20432;-74
2023/10/18 08:20:55;;;;;;;20.15;8.98;;;;;;;7.91;100.00;100589.38;5115943;28;20024;-74
2023/10/18 08:26:03;;;;;;;21.42;9.20;;;;;;;8.25;100.00;100589.72;5115855;28;20032;-74
2023/10/18 08:28:45;;;;;;;20.70;8.52;;;;;;;8.29;100.00;100581.00;5113774;28;20123;-72
2023/10/18 08:33:56;;;;;;;21.02;8.75;;;;;;;8.20;100.00;100571.25;5108977;28;20153;-74
2023/10/18 08:36:31;;;;;;;20.65;8.65;;;;;;;8.29;100.00;100565.19;5114972;28;20111;-72
2023/10/18 08:38:57;;;;;;;20.23;9.00;;;;;;;8.50;100.00;100553.09;5112223;28;20028;-70
2023/10/18 08:41:37;;;;;;;21.65;9.13;;;;;;;8.59;100.00;100561.09;5114391;28;20478;-71
2023/10/18 08:44:16;;;;;;;22.00;9.43;;;;;;;8.69;100.00;100549.75;5115150;28;20042;-70
2023/10/18 08:46:55;;;;;;;22.00;9.10;;;;;;;8.79;100.00;100557.72;5111056;28;20107;-72
2023/10/18 08:49:32;;;;;;;21.13;8.90;;;;;;;8.85;100.00;100552.50;5112546;28;20057;-71
2023/10/18 08:52:11;;;;;;;21.58;9.25;;;;;;;8.73;100.00;100546.25;5114255;28;20394;-67
2023/10/18 08:54:41;;;;;;;20.25;8.98;;;;;;;8.88;100.00;100540.22;5114698;28;20374;-67
2023/10/18 08:57:11;;;;;;;20.60;8.98;;;;;;;9.07;100.00;100554.41;5110058;28;20466;-67
2023/10/18 08:59:45;;;;;;;21.20;9.15;;;;;;;9.35;100.00;100549.28;5104362;28;20498;-73
2023/10/18 09:02:20;;;;;;;22.27;9.15;;;;;;;9.65;100.00;100546.75;5112989;28;20359;-72
2023/10/18 09:04:52;;;;;;;21.85;8.57;;;;;;;9.75;100.00;100538.84;5114696;28;20023;-70
2023/10/18 09:07:22;;;;;;;20.90;8.63;;;;;;;9.89;100.00;100538.03;5114252;28;20020;-69
2023/10/18 09:09:58;;;;;;;21.02;8.98;;;;;;;10.20;100.00;100528.38;5113118;28;20455;-70
2023/10/18 09:15:29;;;;;;;21.58;8.43;;;;;;;10.69;100.00;100524.91;5110944;28;20039;-69
2023/10/18 09:18:03;;;;;;;20.33;8.18;;;;;;;10.89;100.00;100518.69;5114310;28;20420;-70
2023/10/18 09:20:29;;;;;;;20.15;8.00;;;;;;;10.97;100.00;100511.63;5111301;28;20035;-71
2023/10/18 09:23:01;;;;;;;19.83;8.05;;;;;;;11.12;100.00;100500.97;5114552;28;20023;-71
2023/10/18 09:28:11;;;;;;;19.33;7.88;;;;;;;11.46;100.00;100500.84;5111059;28;20481;-71
2023/10/18 09:30:36;;;;;;;19.80;8.15;;;;;;;11.85;100.00;100485.63;5113723;28;20024;-71
2023/10/18 09:33:03;;;;;;;20.05;8.10;;;;;;;12.02;100.00;100490.84;5113746;28;20053;-73
2023/10/18 09:35:30;;;;;;;20.20;7.90;;;;;;;12.09;100.00;100478.44;5113525;28;20023;-71
2023/10/18 09:38:03;;;;;;;20.05;8.15;;;;;;;12.22;100.00;100487.16;5114010;28;20378;-72
2023/10/18 09:40:29;;;;;;;19.80;7.93;;;;;;;12.51;100.00;100486.91;5113362;27;20084;-73
2023/10/18 09:42:55;;;;;;;19.73;7.50;;;;;;;12.77;100.00;100469.88;5111809;28;20454;-71
2023/10/18 09:45:20;;;;;;;19.38;7.10;;;;;;;12.76;100.00;100470.75;5112292;28;20035;-71
2023/10/18 09:47:47;;;;;;;19.40;7.50;;;;;;;13.07;100.00;100457.13;5112622;28;20121;-75
2023/10/18 09:50:23;;;;;;;20.23;8.07;;;;;;;13.29;100.00;100443.59;5113679;28;20024;-72
2023/10/18 09:52:56;;;;;;;19.67;7.38;;;;;;;13.30;100.00;100448.03;5113998;28;20077;-72
2023/10/18 09:55:26;;;;;;;20.23;7.80;;;;;;;13.38;100.00;100441.75;5113845;28;20036;-72
2023/10/18 09:58:04;;;;;;;18.00;7.43;;;;;;;13.59;100.00;100437.91;5113865;28;20029;-72
2023/10/18 10:00:43;;;;;;;18.60;7.43;;;;;;;13.78;100.00;100433.19;5110458;28;20449;-71
2023/10/18 10:03:10;;;;;;;19.17;7.68;;;;;;;14.05;100.00;100422.13;5113731;28;20042;-71
2023/10/18 10:05:41;;;;;;;20.45;7.53;;;;;;;14.16;100.00;100436.13;5113747;28;20016;-72
2023/10/18 10:08:07;;;;;;;19.67;7.53;;;;;;;14.37;100.00;100426.03;5108871;28;20023;-71
2023/10/18 10:10:45;;;;;;;19.15;7.25;;;;;;;14.46;100.00;100412.56;5113192;28;20035;-71
2023/10/18 10:13:27;;;;;;;19.35;7.55;;;;;;;14.70;100.00;100413.03;5108632;28;20447;-71
2023/10/18 10:16:03;;;;;;;18.80;7.88;;;;;;;14.82;100.00;100411.03;5112146;28;20039;-72
2023/10/18 10:18:32;;;;;;;18.98;7.30;;;;;;;15.10;100.00;100396.25;5111682;28;20128;-72
2023/10/18 10:21:00;;;;;;;19.40;7.47;;;;;;;14.93;100.00;100391.31;5113336;28;20020;-72
2023/10/18 10:23:26;;;;;;;19.38;7.38;;;;;;;14.96;100.00;100384.13;5112679;28;20020;-72
2023/10/18 10:26:11;;;;;;;19.17;7.50;;;;;;;15.07;100.00;100375.91;5111977;28;20030;-73
2023/10/18 10:31:51;;;;;;;19.48;7.68;;;;;;;15.29;100.00;100363.00;5110707;28;20047;-73
2023/10/18 10:34:24;;;;;;;21.65;7.85;;;;;;;14.91;100.00;100358.50;5113029;28;20023;-73
2023/10/18 10:36:51;;;;;;;20.17;7.80;;;;;;;14.55;100.00;100358.34;5109005;28;20367;-73
2023/10/18 10:39:30;;;;;;;20.45;7.90;;;;;;;14.41;100.00;100361.25;5113342;28;20023;-76
2023/10/18 10:42:00;;;;;;;18.88;7.78;;;;;;;14.74;100.00;100358.88;5109793;28;20047;-73
2023/10/18 10:44:36;;;;;;;19.90;7.80;;;;;;;15.22;100.00;100350.72;5112935;28;20044;-76
2023/10/18 10:47:46;;;;;;;19.52;7.70;;;;;;;16.31;100.00;100348.94;5113250;28;20030;-76
2023/10/18 10:50:42;;;;;;;20.70;7.85;;;;;;;16.46;100.00;100335.19;5089618;28;20526;-75
2023/10/18 10:53:08;;;;;;;19.50;7.93;;;;;;;15.86;100.00;100329.69;5111512;28;20031;-73
2023/10/18 10:55:34;;;;;;;18.63;7.32;;;;;;;15.99;100.00;100329.38;5113046;28;20023;-74
2023/10/18 10:58:15;;;;;;;19.50;7.82;;;;;;;16.06;100.00;100322.06;5113078;28;20079;-73
2023/10/18 11:01:02;;;;;;;19.85;8.10;;;;;;;15.69;100.00;100318.53;5112971;28;20020;-73
2023/10/18 11:03:46;;;;;;;19.55;7.75;;;;;;;15.64;100.00;100301.78;5108683;28;20028;-73
2023/10/18 11:06:12;;;;;;;19.40;7.80;;;;;;;15.80;100.00;100283.66;5113197;28;20030;-72
2023/10/18 11:08:37;;;;;;;19.52;7.53;;;;;;;15.77;100.00;100297.03;5111904;28;20024;-73
2023/10/18 11:11:06;;;;;;;19.05;7.75;;;;;;;16.09;100.00;100274.91;5107781;28;20119;-73
2023/10/18 11:13:31;;;;;;;18.98;7.43;;;;;;;16.10;100.00;100281.97;5112109;28;20024;-73
2023/10/18 11:16:00;;;;;;;19.35;7.78;;;;;;;16.62;100.00;100279.59;5116684;28;20036;-73
2023/10/18 11:18:34;;;;;;;22.33;8.20;;;;;;;16.99;100.00;100286.53;5113001;28;20128;-75
2023/10/18 11:21:05;;;;;;;18.92;7.10;;;;;;;17.31;100.00;100278.41;5112280;28;20027;-75
2023/10/18 11:23:37;;;;;;;19.17;7.57;;;;;;;17.19;100.00;100266.34;5116526;28;20500;-75
2023/10/18 11:26:08;;;;;;;19.00;7.50;;;;;;;17.53;100.00;100268.78;5116515;28;20167;-74
2023/10/18 11:28:37;;;;;;;20.50;7.80;;;;;;;17.68;100.00;100250.47;5116611;28;20023;-73
2023/10/18 11:31:04;;;;;;;19.20;7.38;;;;;;;17.79;100.00;100258.97;5116498;28;20055;-77
2023/10/18 11:33:56;;;;;;;19.02;7.10;;;;;;;17.94;95.37;100246.94;5116365;28;20030;-76
2023/10/18 11:36:21;;;;;;;19.73;7.47;;;;;;;17.94;92.77;100247.78;5112967;28;20431;-76
2023/10/18 11:41:36;;;;;;;21.52;7.30;;;;;;;18.33;91.42;100237.50;5116535;28;20128;-76
2023/10/18 11:44:10;;;;;;;17.85;6.97;;;;;;;18.38;91.80;100230.19;5116547;28;20031;-76
2023/10/18 11:46:50;;;;;;;17.63;7.00;;;;;;;18.79;87.81;100228.56;5116270;28;20454;-77
2023/10/18 11:49:19;;;;;;;21.00;6.97;;;;;;;19.34;76.76;100208.53;5112726;28;20034;-78
2023/10/18 11:51:48;;;;;;;18.55;6.68;;;;;;;19.52;74.69;100213.09;5116210;28;20071;-74
2023/10/18 11:54:30;;;;;;;19.58;7.07;;;;;;;19.62;77.54;100210.03;5114959;28;20363;-75
2023/10/18 11:56:56;;;;;;;18.98;6.43;;;;;;;19.45;77.62;100197.34;5114953;28;20011;-75
2023/10/18 11:59:26;;;;;;;19.60;6.90;;;;;;;19.17;75.72;100188.66;5114882;28;20028;-75
2023/10/18 12:01:56;;;;;;;18.98;6.55;;;;;;;18.44;79.71;100171.06;5115971;28;20023;-75
2023/10/18 12:04:27;;;;;;;19.75;6.90;;;;;;;18.25;86.29;100176.25;5115497;28;20474;-76
2023/10/18 12:06:53;;;;;;;20.00;7.15;;;;;;;18.72;78.91;100167.31;5115523;28;20027;-75
2023/10/18 12:11:44;;;;;;;18.33;6.30;;;;;;;18.85;79.99;100173.03;5114851;28;20043;-75
2023/10/18 12:14:09;;;;;;;19.20;6.40;;;;;;;18.77;76.61;100157.25;5115889;28;20406;-75
2023/10/18 12:16:35;;;;;;;18.02;6.53;;;;;;;18.34;75.96;100154.50;5114929;28;20035;-75
2023/10/18 12:19:00;;;;;;;18.33;6.53;;;;;;;18.43;82.58;100143.44;5115657;28;20108;-75